Strathdon, United Kingdom
Current Conditions -  °F | °C
As of 9:50 AM on Saturday 29 Nov 2014 (Local Time) from EGPD Reporting Station
Haze Haze  
Wind Chill: 43°   Ceiling: 600
Heat Index: 48°   Visibility: 2.6mi
Dew Point: 48°   Wind: 12mph
Humidity: 100%   Direction: 150°SSE
Pressure: 29.88"   Gusts: NA
Location:  57.2°N, 3.03°W
Report Text: EGPD 290950Z 15010KT 4200 BR BKN006 09/09 Q1012 TEMPO 6000 BKN009
Loading
Personal Weather Stations






























Interactive Weather Map New forecast layout! Learn more

10-Day Weather Forecast

Advertisements
Track Severe Weather on mobile